• Join FlightAware (Why Join?)
  • Login
  • US Flag 
09:53AM EDT


 

Airport Tracker/Info


-or-


 

Live Flight TrackerFlight Track Log ✈ CDG4974 ✈ 18-Jun-2014 ✈ ZSHC / HGH - ZSAM / XMN

Flight Track Log - Related Links

Times and Time Zones

All times are in EDT time to prevent confusion due to time zone crossing. See the CDG4974 flight status page for this flight to view local times or setup timezone preferences in your user account.

Time Position Orientation Groundspeed Altitude Reporting Facility
EDT Latitude Longitude Course Direction KTS MPH feet Rate Location/Type
02:02AM 29.6992 120.2060 200° South  Level Estimated
02:03AM 29.6236 120.1740 200° South  Level Estimated
02:04AM 29.5480 120.1420 200° South  Level Estimated
02:05AM 29.4724 120.1101 200° South  Level Estimated
02:06AM 29.3967 120.0782 200° South  Level Estimated
02:07AM 29.3211 120.0463 200° South  Level Estimated
02:08AM 29.2454 120.0145 200° South  Level Estimated
02:09AM 29.1698 119.9828 200° South  Level Estimated
02:10AM 29.0941 119.9510 200° South  Level Estimated
02:11AM 29.0184 119.9194 200° South  Level Estimated
02:12AM 28.9428 119.8878 200° South  Level Estimated
02:13AM 28.8671 119.8562 200° South  Level Estimated
02:14AM 28.7914 119.8247 200° South  Level Estimated
02:15AM 28.7157 119.7932 200° South  Level Estimated
02:16AM 28.6399 119.7618 200° South  Level Estimated
02:17AM 28.5642 119.7304 200° South  Level Estimated
02:18AM 28.4885 119.6991 200° South  Level Estimated
02:19AM 28.4128 119.6678 200° South  Level Estimated
02:20AM 28.3370 119.6365 200° South  Level Estimated
02:21AM 28.2613 119.6053 200° South  Level Estimated
02:22AM 28.1855 119.5741 200° South  Level Estimated
02:23AM 28.1098 119.5430 200° South  Level Estimated
02:24AM 28.0340 119.5119 200° South  Level Estimated
02:25AM 27.9582 119.4809 200° South  Level Estimated
02:26AM 27.8824 119.4499 200° South  Level Estimated
02:27AM 27.8066 119.4190 200° South  Level Estimated
02:28AM 27.7309 119.3881 200° South  Level Estimated
02:29AM 27.6550 119.3572 200° South  Level Estimated
02:30AM 27.5792 119.3264 200° South  Level Estimated
02:31AM 27.5034 119.2956 200° South  Level Estimated
02:32AM 27.4276 119.2649 200° South  Level Estimated
02:33AM 27.3518 119.2342 200° South  Level Estimated
02:34AM 27.2759 119.2036 200° South  Level Estimated
02:35AM 27.2001 119.1730 200° South  Level Estimated
02:36AM 27.1242 119.1424 200° South  Level Estimated
02:37AM 27.0484 119.1119 200° South  Level Estimated
02:38AM 26.9725 119.0814 200° South  Level Estimated
02:39AM 26.8966 119.0510 200° South  Level Estimated
02:40AM 26.8208 119.0206 200° South  Level Estimated
02:41AM 26.7449 118.9902 200° South  Level Estimated
02:42AM 26.6690 118.9599 200° South  Level Estimated
02:43AM 26.5931 118.9296 200° South  Level Estimated
02:44AM 26.5172 118.8994 200° South  Level Estimated
02:45AM 26.4413 118.8692 200° South  Level Estimated
02:46AM 26.3654 118.8391 200° South  Level Estimated
02:47AM 26.2894 118.8089 200° South  Level Estimated
02:48AM 26.2135 118.7789 200° South  Level Estimated
02:49AM 26.1376 118.7488 200° South  Level Estimated
02:50AM 26.0616 118.7188 200° South  Level Estimated
02:51AM 25.9857 118.6889 200° South  Level Estimated
02:52AM 25.9097 118.6590 200° South  Level Estimated
02:53AM 25.8338 118.6291 199° South  Level Estimated
02:54AM 25.7578 118.5992 199° South  Level Estimated
02:55AM 25.6818 118.5694 199° South  Level Estimated
02:56AM 25.6059 118.5396 199° South  Level Estimated
02:57AM 25.5299 118.5099 199° South  Level Estimated
02:58AM 25.4539 118.4802 199° South  Level Estimated
02:59AM 25.3779 118.4506 199° South  Level Estimated
03:00AM 25.3019 118.4210 199° South  Level Estimated
03:01AM 25.2259 118.3914 199° South  Level Estimated
03:02AM 25.1499 118.3618 199° South  Level Estimated
03:03AM 25.0739 118.3323 199° South  Level Estimated
03:04AM 24.9978 118.3028 199° South  Level Estimated
03:05AM 24.9218 118.2734 199° South  Level Estimated
03:06AM 24.8458 118.2440 199° South  Level Estimated
03:07AM 24.7697 118.2147 199° South  Level Estimated
03:08AM 24.6937 118.1853 199° South  Level Estimated
03:09AM 24.6176 118.1560 199° South  Level Estimated
03:10AM 24.5440 118.1277 199° South  Level Estimated
03:11AM 24.5440 118.1277 North  Level Estimated
03:12AM 24.5440 118.1277 North  Level Estimated
03:13AM 24.5440 118.1277 North  Level Estimated
03:14AM 24.5440 118.1277 North  Level Estimated
03:15AM 24.5440 118.1277 North  Level Estimated
03:16AM 24.5440 118.1277 North  Level Estimated
03:17AM 24.5440 118.1277 North  Level Estimated
03:18AM 24.5440 118.1277 North  Level Estimated
03:19AM 24.5440 118.1277 North  Level Estimated
03:20AM 24.5440 118.1277 North  Level Estimated
03:21AM 24.5440 118.1277 North  Level Estimated
03:22AM 24.5440 118.1277 North  Level Estimated
03:23AM 24.5440 118.1277 North  Level Estimated
03:24AM 24.5440 118.1277 North  Level Estimated
03:25AM 24.5440 118.1277 North  Level Estimated
03:26AM 24.5440 118.1277 North  Level Estimated